LUKK/KIV METAR and TAF weather

Enter ICAO airport designator
Station Type Date Time Source
LUKK METAR 2020/09/21 09:30 UTC NOAA

LUKK 210930Z VRB04KT CAVOK 23/07 Q1023 R09/CLRD// NOSIG


Station Type Date Time Source
LUKK Decoded METAR 2020/09/21 09:30 UTC NOAA

Chisinau International Airport, Moldova (LUKK) 46-55-40N 028-55-51E
Sep 21, 2020 - 05:30 AM EDT / 2020.09.21 0930 UTC
Wind: Variable at 5 MPH (4 KT):0
Visibility: greater than 7 mile(s):0
Temperature: 73 F (23 C)
Dew Point: 44 F (7 C)
Relative Humidity: 35%
Pressure (altimeter): 30.21 in. Hg (1023 hPa)
ob: LUKK 210930Z VRB04KT CAVOK 23/07 Q1023 R09/CLRD// NOSIG
cycle: 9

Station Type Date Time Source
LUKK TAF 2020/09/21 06:24 UTC NOAA

TAF TAF LUKK 210520Z 2106/2206 VRB05KT CAVOK

Example: see airport list